Time;durP1;ratioP1;P1;durP2;ratioP2;P2;SDS_P1;SDS_P2;PMS_P1;PMS_P2;Temp;Humidity;BMP_temperature;BMP_pressure;BME280_temperature;BME280_humidity;BME280_pressure;Samples;Min_cycle;Max_cycle;Signal;HPM_P1;HPM_P2
2023/05/12 00:02:16;;;;;;;1.40;1.20;;;;;;;13.39;61.38;101598.63;4937601;29;20035;-88
2023/05/12 00:04:41;;;;;;;1.75;1.17;;;;;;;13.45;61.09;101601.75;4969803;28;20082;-88
2023/05/12 00:07:07;;;;;;;2.50;1.20;;;;;;;13.39;61.72;101609.84;4937747;29;20043;-87
2023/05/12 00:09:33;;;;;;;1.60;1.27;;;;;;;13.41;62.05;101614.97;4953721;29;20039;-87
2023/05/12 00:11:58;;;;;;;1.40;1.13;;;;;;;13.32;61.42;101598.03;4954016;29;20031;-87
2023/05/12 00:14:24;;;;;;;2.42;1.70;;;;;;;13.39;62.39;101609.00;4969485;28;20036;-88
2023/05/12 00:16:50;;;;;;;1.25;1.13;;;;;;;13.34;62.27;101605.75;4969705;28;20039;-87
2023/05/12 00:19:19;;;;;;;1.48;1.13;;;;;;;13.34;63.48;101613.56;4953648;29;20075;-87
2023/05/12 00:21:45;;;;;;;3.10;1.67;;;;;;;13.23;62.92;101608.84;4969600;28;20055;-87
2023/05/12 00:24:10;;;;;;;2.35;1.52;;;;;;;13.28;62.44;101601.69;4953829;29;20050;-87
2023/05/12 00:26:36;;;;;;;1.67;1.30;;;;;;;13.20;62.78;101583.84;4953487;29;20031;-87
2023/05/12 00:29:01;;;;;;;2.58;1.70;;;;;;;13.20;62.31;101606.38;4953645;29;20042;-87
2023/05/12 00:31:28;;;;;;;2.17;1.80;;;;;;;13.04;63.21;101587.16;4952878;29;20031;-88
2023/05/12 00:33:54;;;;;;;1.50;1.10;;;;;;;13.07;63.88;101585.25;4969116;28;20094;-87
2023/05/12 00:36:19;;;;;;;1.48;1.23;;;;;;;12.98;63.02;101577.00;4952920;29;20055;-86
2023/05/12 00:38:45;;;;;;;2.63;1.90;;;;;;;13.17;63.12;101604.75;4953125;28;20133;-86
2023/05/12 00:41:10;;;;;;;2.55;1.27;;;;;;;13.08;62.58;101599.94;4953464;29;20536;-87
2023/05/12 00:43:36;;;;;;;2.83;1.73;;;;;;;13.07;63.44;101605.19;4953060;29;20042;-87
2023/05/12 00:46:03;;;;;;;2.65;1.88;;;;;;;13.11;63.84;101617.16;4952619;29;20023;-87
2023/05/12 00:48:29;;;;;;;2.30;1.33;;;;;;;13.12;63.16;101611.03;4936943;29;20031;-87
2023/05/12 00:50:54;;;;;;;1.75;1.40;;;;;;;13.04;63.05;101619.16;4936960;29;20096;-88
2023/05/12 00:53:20;;;;;;;2.42;1.42;;;;;;;12.99;62.53;101615.09;4952876;29;20473;-88
2023/05/12 00:55:45;;;;;;;1.50;1.20;;;;;;;12.98;62.84;101623.75;4953134;29;20425;-87
2023/05/12 00:58:11;;;;;;;1.50;1.00;;;;;;;12.90;62.29;101618.91;4952823;29;20035;-87
2023/05/12 01:00:36;;;;;;;2.80;1.55;;;;;;;12.69;62.85;101592.13;4968325;28;20031;-86
2023/05/12 01:03:02;;;;;;;1.48;1.20;;;;;;;12.81;63.02;101604.56;4952502;29;20038;-87
2023/05/12 01:05:35;;;;;;;1.30;0.90;;;;;;;12.84;62.55;101606.19;4936753;29;20035;-87
2023/05/12 01:08:00;;;;;;;;;;;;;;;12.97;62.93;101629.88;4937072;29;20445;-87
2023/05/12 01:10:26;;;;;;;2.08;1.42;;;;;;;12.80;63.44;101600.28;4952542;28;19921;-88
2023/05/12 01:12:51;;;;;;;2.00;1.00;;;;;;;12.95;62.54;101629.09;4936616;29;20413;-88
2023/05/12 01:15:17;;;;;;;1.55;1.10;;;;;;;12.77;61.87;101600.41;4952384;29;20098;-88
2023/05/12 01:17:46;;;;;;;1.60;1.05;;;;;;;12.82;61.74;101608.84;4952580;29;20508;-88
2023/05/12 01:20:11;;;;;;;2.10;1.50;;;;;;;12.79;62.02;101628.94;4952176;29;20035;-87
2023/05/12 01:22:37;;;;;;;2.13;1.58;;;;;;;12.78;61.94;101617.69;4952649;29;20515;-87
2023/05/12 01:25:10;;;;;;;1.75;1.23;;;;;;;12.76;62.42;101619.50;4952750;29;20058;-87
2023/05/12 01:27:36;;;;;;;2.30;1.60;;;;;;;12.85;62.83;101629.47;4952149;29;20039;-87
2023/05/12 01:30:02;;;;;;;1.60;1.20;;;;;;;12.79;61.86;101618.53;4952228;29;20412;-86
2023/05/12 01:32:29;;;;;;;1.70;1.27;;;;;;;12.84;61.64;101627.81;4936003;29;20023;-87
2023/05/12 01:34:54;;;;;;;3.30;1.30;;;;;;;12.62;62.43;101601.06;4952283;29;20086;-87
2023/05/12 01:37:20;;;;;;;1.50;1.00;;;;;;;12.75;62.11;101637.72;4968244;28;20051;-87
2023/05/12 01:39:45;;;;;;;2.30;1.13;;;;;;;12.68;62.48;101631.09;4951893;29;20035;-86
2023/05/12 01:42:10;;;;;;;1.90;1.52;;;;;;;12.57;62.45;101623.75;4968264;28;20039;-87
2023/05/12 01:44:36;;;;;;;1.58;1.15;;;;;;;12.54;62.59;101606.56;4967819;28;20520;-88
2023/05/12 01:47:01;;;;;;;2.45;1.80;;;;;;;12.48;63.14;101604.22;4952040;29;20409;-87
2023/05/12 01:49:27;;;;;;;3.80;1.40;;;;;;;12.62;62.99;101642.59;4951772;28;20477;-87
2023/05/12 01:51:52;;;;;;;1.67;1.23;;;;;;;12.67;63.33;101640.63;4951730;29;20114;-87
2023/05/12 01:54:18;;;;;;;1.75;1.33;;;;;;;12.50;63.43;101649.16;4935884;29;20337;-87
2023/05/12 01:56:43;;;;;;;2.05;1.13;;;;;;;12.46;63.92;101628.56;4952628;29;20493;-88
2023/05/12 01:59:09;;;;;;;2.63;1.60;;;;;;;12.40;63.79;101631.41;4967919;28;20035;-88
2023/05/12 02:01:35;;;;;;;1.80;1.10;;;;;;;12.26;63.31;101625.00;4951544;29;20091;-87
2023/05/12 02:04:02;;;;;;;1.88;1.25;;;;;;;12.20;63.98;101627.88;4951757;29;20031;-86
2023/05/12 02:06:28;;;;;;;1.77;1.20;;;;;;;12.09;63.49;101617.03;4967635;28;20035;-87
2023/05/12 02:08:53;;;;;;;1.45;0.95;;;;;;;12.32;64.21;101645.53;4935684;29;20031;-88
2023/05/12 02:11:20;;;;;;;2.22;1.50;;;;;;;12.26;63.50;101639.72;4967217;28;20031;-86
2023/05/12 02:13:46;;;;;;;2.53;1.27;;;;;;;12.23;63.94;101645.91;4953061;28;20039;-87
2023/05/12 02:16:11;;;;;;;1.40;1.25;;;;;;;12.14;63.60;101630.69;4953072;29;20050;-87
2023/05/12 02:18:37;;;;;;;2.03;1.27;;;;;;;12.25;63.54;101648.41;4951600;29;20039;-88
2023/05/12 02:21:02;;;;;;;2.70;1.50;;;;;;;12.18;64.02;101644.38;4951500;29;20031;-87
2023/05/12 02:23:28;;;;;;;2.20;1.20;;;;;;;12.07;64.45;101629.22;4951779;29;20038;-88
2023/05/12 02:25:53;;;;;;;1.52;1.10;;;;;;;11.98;65.19;101645.16;4952785;29;20042;-89
2023/05/12 02:28:19;;;;;;;2.95;1.23;;;;;;;12.03;65.03;101644.09;4935497;29;20540;-87
2023/05/12 02:30:47;;;;;;;2.08;1.50;;;;;;;12.00;65.56;101651.16;4967376;28;20039;-87
2023/05/12 02:33:16;;;;;;;1.75;0.93;;;;;;;11.97;65.33;101659.88;4951517;29;20035;-86
2023/05/12 02:35:41;;;;;;;1.45;1.10;;;;;;;11.92;66.47;101655.78;4951317;29;20162;-87
2023/05/12 02:38:07;;;;;;;1.05;0.88;;;;;;;11.82;67.05;101644.06;4967167;28;20031;-87
2023/05/12 02:40:32;;;;;;;1.92;1.27;;;;;;;11.85;67.81;101646.53;4951171;29;20035;-87
2023/05/12 02:42:58;;;;;;;1.33;1.10;;;;;;;11.93;67.40;101657.47;4951139;29;20035;-86
2023/05/12 02:45:23;;;;;;;0.98;0.88;;;;;;;11.95;67.15;101660.84;4951633;29;20042;-87
2023/05/12 02:47:49;;;;;;;2.17;1.65;;;;;;;11.86;67.52;101661.19;4935363;29;20035;-86
2023/05/12 02:50:15;;;;;;;1.75;1.27;;;;;;;11.72;67.62;101646.97;4935268;29;20031;-87
2023/05/12 02:52:40;;;;;;;1.80;1.27;;;;;;;11.74;66.67;101668.50;4967256;28;20849;-87
2023/05/12 02:55:06;;;;;;;1.85;1.30;;;;;;;11.82;68.48;101675.19;4950916;28;20094;-87
2023/05/12 02:57:32;;;;;;;4.32;1.45;;;;;;;11.78;68.12;101664.88;4951191;29;20110;-87
2023/05/12 03:00:03;;;;;;;1.48;1.10;;;;;;;11.74;69.31;101639.13;4950966;29;20507;-85
2023/05/12 03:02:29;;;;;;;2.40;1.23;;;;;;;11.98;68.61;101674.53;4952309;28;20035;-85
2023/05/12 03:04:54;;;;;;;2.67;1.33;;;;;;;11.95;70.03;101666.03;4955832;29;20031;-86
2023/05/12 03:07:19;;;;;;;2.20;1.40;;;;;;;11.87;69.31;101673.25;4970774;28;20042;-87
2023/05/12 03:09:45;;;;;;;2.55;1.38;;;;;;;11.89;70.83;101679.22;4954236;29;20512;-86
2023/05/12 03:12:10;;;;;;;1.73;1.25;;;;;;;11.80;70.71;101674.38;4955084;29;20035;-86
2023/05/12 03:14:36;;;;;;;1.75;1.48;;;;;;;11.84;69.63;101678.56;4954775;29;20057;-86
2023/05/12 03:17:01;;;;;;;1.67;1.27;;;;;;;11.61;68.35;101672.44;4954482;29;20042;-86
2023/05/12 03:19:26;;;;;;;1.88;1.38;;;;;;;11.50;68.16;101669.38;4954501;29;20027;-86
2023/05/12 03:21:52;;;;;;;2.25;1.30;;;;;;;11.24;69.67;101657.38;4954372;29;20094;-85
2023/05/12 03:24:18;;;;;;;1.02;0.88;;;;;;;11.39;70.13;101692.22;4954503;29;20034;-86
2023/05/12 03:26:43;;;;;;;1.27;0.90;;;;;;;11.36;69.97;101688.00;4954498;29;20456;-86
2023/05/12 03:29:09;;;;;;;2.30;1.52;;;;;;;11.31;70.07;101678.72;4952841;29;20042;-83
2023/05/12 03:31:35;;;;;;;1.95;1.13;;;;;;;11.26;70.24;101672.84;4954655;29;20032;-90
2023/05/12 03:34:00;;;;;;;1.23;1.13;;;;;;;11.46;71.87;101704.09;4954060;29;20477;-88
2023/05/12 03:36:26;;;;;;;1.77;1.17;;;;;;;11.46;72.01;101711.84;4937670;29;20153;-89
2023/05/12 03:38:51;;;;;;;2.50;1.70;;;;;;;11.37;70.81;101704.41;4954208;29;20031;-88
2023/05/12 03:41:17;;;;;;;1.35;1.25;;;;;;;11.45;72.65;101718.78;4954139;29;20046;-88
2023/05/12 03:43:42;;;;;;;2.15;1.42;;;;;;;11.28;71.46;101712.50;4954216;29;20485;-89
2023/05/12 03:46:08;;;;;;;2.28;1.40;;;;;;;11.35;72.51;101716.56;4969676;28;20094;-88
2023/05/12 03:48:33;;;;;;;3.50;1.52;;;;;;;11.25;72.83;101720.38;4954260;29;20031;-88
2023/05/12 03:50:59;;;;;;;3.35;1.98;;;;;;;11.19;74.46;101717.09;4970228;28;20035;-88
2023/05/12 03:53:24;;;;;;;2.85;1.73;;;;;;;11.28;74.07;101735.81;4954365;29;20038;-91
2023/05/12 03:55:50;;;;;;;2.53;1.63;;;;;;;11.17;74.66;101741.34;4954370;29;20035;-90
2023/05/12 03:58:15;;;;;;;4.35;2.67;;;;;;;11.10;74.27;101740.69;4954650;29;20481;-92
2023/05/12 04:00:41;;;;;;;7.50;2.65;;;;;;;11.11;75.52;101734.66;4938623;29;20035;-91
2023/05/12 04:03:06;;;;;;;2.85;2.30;;;;;;;11.10;75.72;101729.50;4953701;29;20088;-84
2023/05/12 04:05:31;;;;;;;3.85;1.67;;;;;;;11.09;74.26;101745.94;4953267;29;20031;-86
2023/05/12 04:07:57;;;;;;;2.63;1.95;;;;;;;11.03;75.35;101736.66;4953453;29;20035;-85
2023/05/12 04:10:22;;;;;;;2.30;1.75;;;;;;;10.79;74.95;101721.91;4953061;29;20106;-81
2023/05/12 04:12:48;;;;;;;1.92;1.45;;;;;;;10.93;74.18;101750.78;4953860;28;20031;-87
2023/05/12 04:15:13;;;;;;;2.33;1.50;;;;;;;10.83;74.66;101765.78;4951758;28;20061;-82
2023/05/12 04:17:39;;;;;;;1.92;1.67;;;;;;;10.75;75.35;101748.78;4951348;28;20027;-86
2023/05/12 04:20:06;;;;;;;2.47;1.40;;;;;;;10.92;77.48;101762.03;4946217;29;20031;-89
2023/05/12 04:22:31;;;;;;;3.42;1.70;;;;;;;10.87;76.51;101750.97;4952511;28;20035;-89
2023/05/12 04:24:57;;;;;;;2.10;1.42;;;;;;;10.74;76.04;101735.00;4954089;28;20038;-85
2023/05/12 04:27:22;;;;;;;1.63;1.38;;;;;;;10.96;78.31;101758.44;4946740;28;20485;-88
2023/05/12 04:29:48;;;;;;;1.98;1.65;;;;;;;10.98;78.06;101763.56;4954880;29;20053;-89
2023/05/12 04:32:13;;;;;;;2.03;1.35;;;;;;;10.96;77.53;101766.22;4937849;29;20054;-91
2023/05/12 04:34:39;;;;;;;2.75;1.95;;;;;;;10.94;78.49;101762.84;4955317;29;20035;-90
2023/05/12 04:37:04;;;;;;;3.33;2.60;;;;;;;10.79;78.33;101743.44;4952706;29;20106;-88
2023/05/12 04:39:30;;;;;;;3.05;1.48;;;;;;;10.66;78.54;101721.44;4983183;23;20062;-86
2023/05/12 04:41:55;;;;;;;1.77;1.27;;;;;;;10.89;77.42;101764.72;4952501;28;20059;-92
2023/05/12 04:44:21;;;;;;;43.72;28.40;;;;;;;10.92;79.16;101767.22;4956850;28;20038;-93
2023/05/12 04:46:46;;;;;;;21.95;13.90;;;;;;;10.82;78.82;101752.88;4969525;28;20035;-87
2023/05/12 04:49:12;;;;;;;4.47;2.53;;;;;;;10.96;78.92;101762.78;4952434;29;20031;-86
2023/05/12 04:51:41;;;;;;;2.08;1.58;;;;;;;10.94;77.81;101756.81;4953914;28;20073;-86
2023/05/12 04:54:09;;;;;;;3.17;2.05;;;;;;;10.93;78.73;101753.38;4958088;28;20464;-88
2023/05/12 04:56:34;;;;;;;2.35;1.70;;;;;;;10.71;76.65;101731.63;4972393;28;20042;-88
2023/05/12 04:59:00;;;;;;;3.35;1.92;;;;;;;10.89;77.50;101769.88;4972138;28;20038;-85
2023/05/12 05:01:25;;;;;;;2.42;1.90;;;;;;;10.72;77.70;101736.78;4972922;28;20027;-89
2023/05/12 05:03:51;;;;;;;2.85;1.88;;;;;;;10.82;77.64;101773.59;4972486;28;20581;-90
2023/05/12 05:06:16;;;;;;;1.80;1.55;;;;;;;10.67;78.16;101749.03;4955589;28;20082;-84
2023/05/12 05:10:06;;;;;;;2.13;1.77;;;;;;;10.82;76.93;101778.78;5067546;28;20427;-93
2023/05/12 05:12:32;;;;;;;1.95;1.25;;;;;;;10.70;76.85;101771.38;5037556;28;20033;-90
2023/05/12 05:14:57;;;;;;;2.42;1.67;;;;;;;10.72;77.52;101773.03;5044394;28;20417;-84
2023/05/12 05:17:23;;;;;;;2.80;1.60;;;;;;;10.76;77.16;101776.34;5053340;28;20025;-86
2023/05/12 05:19:48;;;;;;;3.17;2.05;;;;;;;10.91;77.49;101793.97;5044892;28;20034;-86
2023/05/12 05:22:14;;;;;;;3.13;2.10;;;;;;;10.89;78.22;101798.38;5057084;28;20031;-85
2023/05/12 05:24:40;;;;;;;1.73;1.25;;;;;;;10.93;78.13;101802.56;5044551;28;20502;-92
2023/05/12 05:27:05;;;;;;;1.88;1.42;;;;;;;10.99;77.31;101801.50;5032855;28;20028;-87
2023/05/12 05:29:31;;;;;;;3.15;2.05;;;;;;;10.90;75.69;101792.28;5050679;28;20036;-89
2023/05/12 05:31:56;;;;;;;2.55;1.70;;;;;;;10.84;76.64;101803.69;5062057;28;20439;-89
2023/05/12 05:34:22;;;;;;;3.83;1.88;;;;;;;10.87;76.47;101798.41;5046257;28;20084;-91
2023/05/12 05:36:47;;;;;;;4.32;2.42;;;;;;;10.91;76.11;101796.56;5038232;28;20025;-91
2023/05/12 05:39:12;;;;;;;2.30;1.20;;;;;;;10.88;76.68;101794.09;5028660;28;20501;-87
2023/05/12 05:41:38;;;;;;;3.25;1.77;;;;;;;10.79;76.17;101779.69;5057217;28;20402;-90
2023/05/12 05:44:04;;;;;;;3.35;1.80;;;;;;;10.90;76.59;101797.47;5066127;28;20040;-89
2023/05/12 05:46:29;;;;;;;2.35;1.75;;;;;;;10.83;75.91;101802.00;5061559;28;20040;-88
2023/05/12 05:48:54;;;;;;;2.33;1.88;;;;;;;10.78;76.21;101787.50;5062184;28;20036;-85
2023/05/12 05:51:20;;;;;;;2.40;1.92;;;;;;;10.80;76.14;101794.31;5028899;28;20029;-87
2023/05/12 05:53:45;;;;;;;3.47;2.40;;;;;;;10.88;76.54;101804.44;5052729;28;20029;-86
2023/05/12 05:56:11;;;;;;;5.72;2.15;;;;;;;10.95;76.89;101815.47;5065003;28;20036;-88
2023/05/12 05:58:37;;;;;;;4.00;2.35;;;;;;;10.96;75.93;101812.81;5058829;28;20063;-88
2023/05/12 06:01:03;;;;;;;3.25;2.47;;;;;;;10.84;75.59;101783.00;5057140;28;20475;-88
2023/05/12 06:03:28;;;;;;;4.40;2.35;;;;;;;10.93;76.21;101807.75;5033005;28;20072;-87
2023/05/12 06:05:54;;;;;;;3.25;1.52;;;;;;;10.96;75.39;101812.81;5063022;28;20033;-87
2023/05/12 06:08:19;;;;;;;3.65;3.03;;;;;;;11.10;76.33;101822.72;5085221;28;20511;-89
2023/05/12 06:10:45;;;;;;;3.30;1.70;;;;;;;10.98;74.30;101816.19;5077389;28;20032;-87
2023/05/12 06:13:10;;;;;;;4.15;2.55;;;;;;;10.99;74.27;101807.53;5028300;28;20483;-85
2023/05/12 06:15:36;;;;;;;3.13;2.40;;;;;;;11.06;74.95;101824.56;5047097;28;20036;-92
2023/05/12 06:18:01;;;;;;;4.22;2.70;;;;;;;10.95;75.66;101811.13;5016163;28;20079;-91
2023/05/12 06:20:27;;;;;;;2.92;1.75;;;;;;;11.02;75.18;101835.94;5019195;28;20038;-85
2023/05/12 06:22:52;;;;;;;2.63;1.83;;;;;;;11.06;75.21;101829.75;5048842;28;20464;-88
2023/05/12 06:25:18;;;;;;;3.00;2.53;;;;;;;11.11;75.42;101837.38;5045709;28;20086;-86
2023/05/12 06:27:43;;;;;;;3.15;2.40;;;;;;;11.05;75.47;101807.34;5022266;28;20517;-93
2023/05/12 06:30:10;;;;;;;3.50;2.85;;;;;;;11.23;75.60;101837.00;5034655;28;20036;-87
2023/05/12 06:32:35;;;;;;;4.63;2.30;;;;;;;11.24;74.48;101837.84;5049822;28;20112;-90
2023/05/12 06:35:01;;;;;;;4.00;2.65;;;;;;;11.24;74.57;101835.25;5036774;28;20036;-86
2023/05/12 06:37:26;;;;;;;3.55;2.45;;;;;;;11.26;74.15;101843.81;5042981;28;20498;-91
2023/05/12 06:39:52;;;;;;;2.63;2.25;;;;;;;11.39;75.53;101848.53;5045904;28;20029;-87
2023/05/12 06:42:17;;;;;;;3.63;2.33;;;;;;;11.34;74.38;101831.47;5024260;28;20033;-90
2023/05/12 06:44:43;;;;;;;2.85;2.22;;;;;;;11.37;73.44;101844.31;5045126;28;20037;-85
2023/05/12 06:47:08;;;;;;;7.50;3.42;;;;;;;11.49;73.90;101849.94;5029249;28;20033;-94
2023/05/12 06:49:37;;;;;;;3.55;2.28;;;;;;;11.56;73.14;101849.72;5021061;28;20036;-89
2023/05/12 06:52:04;;;;;;;4.32;2.92;;;;;;;11.56;73.23;101849.72;5044375;28;20147;-93
2023/05/12 06:54:29;;;;;;;4.18;2.83;;;;;;;11.49;73.15;101836.13;5018851;28;20029;-85
2023/05/12 06:56:55;;;;;;;3.45;2.40;;;;;;;11.51;72.50;101851.66;5048362;28;20052;-91
2023/05/12 06:59:20;;;;;;;5.00;2.95;;;;;;;11.61;73.06;101859.06;5034399;28;20535;-85
2023/05/12 07:01:46;;;;;;;12.55;4.63;;;;;;;11.63;73.63;101853.81;5049960;28;20464;-87
2023/05/12 07:04:11;;;;;;;28.40;15.90;;;;;;;11.60;73.57;101833.16;5039678;28;20052;-82
2023/05/12 07:06:36;;;;;;;6.10;3.72;;;;;;;11.92;74.17;101866.66;5030951;28;20038;-85
2023/05/12 07:09:02;;;;;;;4.15;3.20;;;;;;;11.85;72.62;101844.44;5029272;28;20049;-88
2023/05/12 07:11:28;;;;;;;4.40;2.58;;;;;;;11.93;72.73;101859.72;5029677;28;20013;-87
2023/05/12 07:13:53;;;;;;;4.68;3.22;;;;;;;11.85;71.81;101831.47;5028941;28;20415;-89
2023/05/12 07:16:19;;;;;;;6.97;3.13;;;;;;;12.01;71.30;101862.91;5027484;28;20025;-89
2023/05/12 07:18:44;;;;;;;4.55;2.50;;;;;;;11.94;71.00;101846.69;5034595;28;20029;-91
2023/05/12 07:21:10;;;;;;;3.40;2.50;;;;;;;12.00;72.59;101849.09;5017691;28;20045;-85
2023/05/12 07:23:36;;;;;;;7.22;3.65;;;;;;;12.19;71.24;101867.44;5027000;28;20515;-94
2023/05/12 07:26:02;;;;;;;7.07;3.15;;;;;;;12.11;68.79;101871.22;5010869;28;20115;-84
2023/05/12 07:28:31;;;;;;;11.93;3.75;;;;;;;12.12;69.73;101888.47;5007005;28;20526;-86
2023/05/12 07:30:57;;;;;;;4.80;3.30;;;;;;;11.94;69.92;101861.41;5040287;28;20037;-85
2023/05/12 07:33:23;;;;;;;3.33;3.03;;;;;;;12.10;69.52;101887.69;5026246;28;20113;-87
2023/05/12 07:35:48;;;;;;;4.57;3.17;;;;;;;12.17;69.63;101889.97;5027787;28;20014;-88
2023/05/12 07:38:14;;;;;;;5.82;3.33;;;;;;;12.31;70.27;101885.16;5033112;28;20021;-87
2023/05/12 07:40:39;;;;;;;3.33;2.30;;;;;;;12.48;71.45;101883.69;5032588;28;20033;-87
2023/05/12 07:43:05;;;;;;;6.50;3.55;;;;;;;12.53;69.61;101889.56;5038427;28;20045;-83
2023/05/12 07:45:30;;;;;;;4.47;2.75;;;;;;;12.48;68.00;101896.66;5013631;28;20543;-89
2023/05/12 07:47:55;;;;;;;3.65;2.88;;;;;;;12.60;66.92;101891.03;5009869;28;20061;-90
2023/05/12 07:50:21;;;;;;;19.95;3.38;;;;;;;12.35;67.21;101865.13;5030185;28;20036;-90
2023/05/12 07:52:50;;;;;;;5.85;3.33;;;;;;;12.60;67.46;101896.22;5029507;28;20465;-87
2023/05/12 07:55:16;;;;;;;6.00;2.47;;;;;;;12.60;66.53;101893.63;5033228;28;20039;-91
2023/05/12 07:57:42;;;;;;;4.50;2.95;;;;;;;12.44;66.43;101885.56;5032784;28;20029;-85
2023/05/12 08:00:08;;;;;;;3.33;2.35;;;;;;;12.48;66.68;101889.72;5048885;28;20112;-83
2023/05/12 08:02:35;;;;;;;5.80;2.85;;;;;;;12.54;67.89;101886.06;5033725;28;20104;-94
2023/05/12 08:05:01;;;;;;;6.55;4.22;;;;;;;12.59;67.33;101887.59;5032797;28;20037;-87
2023/05/12 08:07:26;;;;;;;2.80;2.50;;;;;;;12.56;67.21;101886.84;5025071;28;20438;-87
2023/05/12 08:09:53;;;;;;;6.72;3.60;;;;;;;12.39;66.96;101868.44;5032351;28;20063;-85
2023/05/12 08:12:18;;;;;;;9.15;3.15;;;;;;;12.50;67.29;101887.09;5033093;28;20020;-86
2023/05/12 08:14:44;;;;;;;6.10;3.42;;;;;;;12.45;67.46;101889.00;5041315;28;20048;-88
2023/05/12 08:17:09;;;;;;;3.97;2.95;;;;;;;12.47;66.98;101900.16;5030681;28;20040;-85
2023/05/12 08:19:35;;;;;;;3.50;2.50;;;;;;;12.35;66.76;101863.38;5028109;28;20043;-84
2023/05/12 08:22:01;;;;;;;4.38;3.17;;;;;;;12.35;67.86;101875.50;5038368;28;20835;-89
2023/05/12 08:24:27;;;;;;;4.18;2.72;;;;;;;12.56;67.70;101894.63;5052701;28;20465;-91
2023/05/12 08:26:52;;;;;;;4.13;2.97;;;;;;;12.50;67.75;101893.13;5009597;28;20033;-93
2023/05/12 08:29:18;;;;;;;8.30;3.53;;;;;;;12.50;67.31;101892.28;5031524;28;20032;-86
2023/05/12 08:31:43;;;;;;;4.90;3.03;;;;;;;12.58;67.43;101895.41;5047702;28;20036;-92
2023/05/12 08:34:09;;;;;;;3.40;2.40;;;;;;;12.48;67.18;101888.88;5025180;28;20045;-89
2023/05/12 08:36:34;;;;;;;5.22;3.30;;;;;;;12.43;67.22;101877.81;5017211;28;20021;-86
2023/05/12 08:39:00;;;;;;;6.15;2.85;;;;;;;12.55;67.39;101900.72;5030623;28;20034;-92
2023/05/12 08:41:33;;;;;;;4.28;2.97;;;;;;;12.48;66.78;101881.09;5017346;28;20029;-88
2023/05/12 08:43:59;;;;;;;4.32;3.17;;;;;;;12.51;67.54;101883.59;5014496;28;20051;-86
2023/05/12 08:46:24;;;;;;;7.00;5.38;;;;;;;12.42;66.61;101881.31;5028278;28;20399;-91
2023/05/12 08:48:50;;;;;;;3.33;2.40;;;;;;;12.47;66.95;101879.41;5028882;28;20036;-85
2023/05/12 08:51:15;;;;;;;5.55;4.00;;;;;;;12.50;67.35;101881.91;5009923;28;20417;-87
2023/05/12 08:53:41;;;;;;;4.53;3.30;;;;;;;12.63;67.82;101896.09;5028645;28;20060;-89
2023/05/12 08:56:08;;;;;;;5.60;2.80;;;;;;;12.65;67.15;101889.09;5013282;28;20036;-87
2023/05/12 08:58:34;;;;;;;4.00;2.72;;;;;;;12.51;66.75;101868.00;5026843;28;20033;-85
2023/05/12 09:01:01;;;;;;;5.20;3.53;;;;;;;12.67;66.40;101905.47;5023412;28;20044;-88
2023/05/12 09:03:27;;;;;;;3.03;2.47;;;;;;;12.67;66.73;101892.47;5032091;28;20021;-86
2023/05/12 09:05:54;;;;;;;6.65;3.67;;;;;;;12.61;67.56;101878.00;5041369;28;20048;-89
2023/05/12 09:08:20;;;;;;;3.75;3.08;;;;;;;12.71;67.14;101901.88;5015842;28;20038;-87
2023/05/12 09:10:46;;;;;;;5.03;3.00;;;;;;;12.61;67.91;101872.81;5026029;28;20486;-84
2023/05/12 09:13:32;;;;;;;6.57;3.45;;;;;;;12.80;67.90;101885.94;5026705;28;20344;-85
2023/05/12 09:15:59;;;;;;;4.85;3.20;;;;;;;12.74;67.19;101870.56;5002855;28;20060;-87
2023/05/12 09:18:25;;;;;;;6.28;3.15;;;;;;;12.86;67.37;101870.09;5013293;28;20484;-90
2023/05/12 09:20:50;;;;;;;5.90;3.38;;;;;;;12.96;67.05;101872.34;5012974;28;20042;-87
2023/05/12 09:23:19;;;;;;;5.95;4.15;;;;;;;13.20;66.23;101892.22;5025068;28;20034;-86
2023/05/12 09:25:48;;;;;;;5.15;3.40;;;;;;;13.25;66.65;101884.22;5017275;28;20025;-95
2023/05/12 09:28:13;;;;;;;3.95;3.30;;;;;;;13.35;66.86;101881.19;5029934;28;20033;-87
2023/05/12 09:30:41;;;;;;;6.32;4.03;;;;;;;13.40;66.16;101881.84;5027445;28;20498;-92
2023/05/12 09:33:12;;;;;;;6.18;3.83;;;;;;;13.34;66.38;101871.69;5041269;28;20487;-90
2023/05/12 09:35:42;;;;;;;7.57;4.07;;;;;;;13.38;67.24;101867.25;5011007;28;20029;-84
2023/05/12 09:38:12;;;;;;;4.97;3.08;;;;;;;13.40;67.52;101855.03;5038446;28;20040;-88
2023/05/12 09:40:38;;;;;;;5.05;3.28;;;;;;;13.42;66.71;101843.66;5046647;28;20021;-84
2023/05/12 09:43:06;;;;;;;6.97;3.85;;;;;;;13.64;66.21;101871.34;5031632;28;20032;-87
2023/05/12 09:45:35;;;;;;;3.88;2.97;;;;;;;13.51;65.91;101860.63;5047806;28;20055;-85
2023/05/12 09:48:11;;;;;;;4.93;3.13;;;;;;;13.59;64.53;101865.50;5028927;28;20025;-86
2023/05/12 09:50:47;;;;;;;5.30;3.90;;;;;;;13.66;65.00;101866.91;5025812;28;20022;-89
2023/05/12 09:53:13;;;;;;;5.32;3.42;;;;;;;13.64;65.10;101873.94;5035043;28;20025;-93
2023/05/12 09:55:41;;;;;;;7.10;4.35;;;;;;;13.62;65.83;101874.00;5050726;28;20040;-86
2023/05/12 09:58:08;;;;;;;6.55;3.53;;;;;;;13.63;65.89;101864.44;5034957;28;20049;-83
2023/05/12 10:00:40;;;;;;;10.38;4.18;;;;;;;13.68;66.58;101867.72;5034940;28;20534;-86
2023/05/12 10:03:10;;;;;;;6.75;3.55;;;;;;;13.68;65.93;101875.53;5036067;28;20060;-86
2023/05/12 10:05:37;;;;;;;8.60;4.03;;;;;;;13.53;66.80;101838.00;5051019;28;20039;-84
2023/05/12 10:08:03;;;;;;;5.85;4.53;;;;;;;13.82;65.97;101872.31;5040654;28;20507;-89
2023/05/12 10:10:28;;;;;;;7.97;4.18;;;;;;;13.59;65.76;101840.34;5030300;28;20029;-93
2023/05/12 10:12:54;;;;;;;6.32;4.03;;;;;;;13.83;65.67;101863.63;5037206;28;20028;-86
2023/05/12 10:15:20;;;;;;;5.50;3.22;;;;;;;13.90;65.35;101867.66;5052571;28;20128;-95
2023/05/12 10:17:46;;;;;;;7.35;4.68;;;;;;;13.80;65.24;101833.38;5036445;28;20036;-91
2023/05/12 10:20:12;;;;;;;5.10;3.92;;;;;;;13.92;64.74;101840.66;5040899;28;20545;-87
2023/05/12 10:22:39;;;;;;;3.92;2.97;;;;;;;13.98;63.96;101853.41;5031184;28;20556;-88
2023/05/12 10:25:05;;;;;;;6.63;3.75;;;;;;;13.95;63.01;101863.06;5014638;28;20105;-88
2023/05/12 10:27:31;;;;;;;5.60;3.58;;;;;;;13.80;63.90;101854.19;5032045;28;20570;-91
2023/05/12 10:29:57;;;;;;;10.98;3.72;;;;;;;13.91;63.64;101867.56;5031039;28;20024;-90
2023/05/12 10:32:22;;;;;;;8.18;4.50;;;;;;;13.87;63.87;101854.78;5014372;28;20025;-89
2023/05/12 10:34:48;;;;;;;6.65;3.95;;;;;;;13.96;63.03;101863.03;5047535;28;20501;-88
2023/05/12 10:37:13;;;;;;;12.52;4.60;;;;;;;13.88;63.20;101846.91;5017728;28;20422;-83
2023/05/12 10:39:49;;;;;;;5.03;2.97;;;;;;;14.00;63.62;101877.59;5051836;28;20037;-94
2023/05/12 10:42:24;;;;;;;5.10;3.45;;;;;;;14.00;63.30;101872.38;5019462;28;21120;-91
2023/05/12 10:44:53;;;;;;;6.15;4.25;;;;;;;14.09;63.96;101872.91;5024060;28;20032;-93
2023/05/12 10:47:25;;;;;;;5.22;3.28;;;;;;;14.11;63.28;101865.88;5027884;28;20028;-93
2023/05/12 10:49:54;;;;;;;5.90;3.53;;;;;;;14.05;63.40;101878.22;5039063;28;20029;-91
2023/05/12 10:52:20;;;;;;;4.88;3.05;;;;;;;14.10;63.78;101866.78;5032702;28;20036;-91
2023/05/12 10:54:45;;;;;;;4.40;3.00;;;;;;;14.12;62.69;101862.34;5016040;28;20033;-91
2023/05/12 10:57:14;;;;;;;5.68;3.55;;;;;;;14.09;63.15;101865.09;5016948;28;20465;-92
2023/05/12 10:59:56;;;;;;;9.65;3.65;;;;;;;14.20;63.20;101863.69;5032154;28;20032;-95
2023/05/12 11:02:29;;;;;;;10.10;4.38;;;;;;;14.16;63.35;101867.38;5032543;28;20045;-89
2023/05/12 11:04:56;;;;;;;19.70;10.10;;;;;;;14.13;64.26;101866.63;5016019;28;20041;-90
2023/05/12 11:07:30;;;;;;;16.13;4.97;;;;;;;14.06;63.98;101846.09;4999260;28;20452;-86
2023/05/12 11:09:56;;;;;;;11.70;4.60;;;;;;;14.13;63.98;101851.88;5030751;28;20053;-85
2023/05/12 11:12:22;;;;;;;5.80;3.83;;;;;;;14.13;62.63;101851.03;5014540;28;20043;-85
2023/05/12 11:14:47;;;;;;;10.38;6.15;;;;;;;14.27;63.27;101861.69;5034597;28;20487;-94
2023/05/12 11:17:13;;;;;;;6.07;3.42;;;;;;;14.09;61.37;101834.72;5016812;28;20032;-87
2023/05/12 11:19:42;;;;;;;4.90;3.55;;;;;;;14.17;61.05;101848.22;5030880;28;20512;-89
2023/05/12 11:22:09;;;;;;;5.30;3.58;;;;;;;14.15;61.60;101844.81;5031154;28;20179;-83